sensor_id;sensor_type;location;lat;lon;timestamp;temperature;humidity
47022;DHT22;32779;52.264;6.154;2022-09-03T00:00:36;17.20;90.20
47022;DHT22;32779;52.264;6.154;2022-09-03T00:03:19;17.20;90.10
47022;DHT22;32779;52.264;6.154;2022-09-03T00:05:50;17.10;90.20
47022;DHT22;32779;52.264;6.154;2022-09-03T00:08:47;17.10;90.40
47022;DHT22;32779;52.264;6.154;2022-09-03T00:11:22;17.10;90.40
47022;DHT22;32779;52.264;6.154;2022-09-03T00:14:05;17.10;90.50
47022;DHT22;32779;52.264;6.154;2022-09-03T00:16:45;17.00;90.50
47022;DHT22;32779;52.264;6.154;2022-09-03T00:19:17;17.00;90.80
47022;DHT22;32779;52.264;6.154;2022-09-03T00:21:51;16.90;90.40
47022;DHT22;32779;52.264;6.154;2022-09-03T00:24:22;16.90;90.40
47022;DHT22;32779;52.264;6.154;2022-09-03T00:26:52;16.90;90.40
47022;DHT22;32779;52.264;6.154;2022-09-03T00:29:24;16.80;91.10
47022;DHT22;32779;52.264;6.154;2022-09-03T00:32:04;16.80;91.20
47022;DHT22;32779;52.264;6.154;2022-09-03T00:34:35;16.80;90.80
47022;DHT22;32779;52.264;6.154;2022-09-03T00:37:04;16.80;90.90
47022;DHT22;32779;52.264;6.154;2022-09-03T00:39:30;16.80;90.60
47022;DHT22;32779;52.264;6.154;2022-09-03T00:45:15;16.70;90.90
47022;DHT22;32779;52.264;6.154;2022-09-03T00:47:53;16.70;91.40
47022;DHT22;32779;52.264;6.154;2022-09-03T00:55:55;16.60;91.30
47022;DHT22;32779;52.264;6.154;2022-09-03T00:58:29;16.60;91.20
47022;DHT22;32779;52.264;6.154;2022-09-03T01:01:00;16.60;91.40
47022;DHT22;32779;52.264;6.154;2022-09-03T01:03:53;16.50;91.40
47022;DHT22;32779;52.264;6.154;2022-09-03T01:06:23;16.50;91.00
47022;DHT22;32779;52.264;6.154;2022-09-03T01:09:21;16.50;91.10
47022;DHT22;32779;52.264;6.154;2022-09-03T01:14:41;16.40;91.20
47022;DHT22;32779;52.264;6.154;2022-09-03T01:17:23;16.40;91.50
47022;DHT22;32779;52.264;6.154;2022-09-03T01:23:17;16.40;91.60
47022;DHT22;32779;52.264;6.154;2022-09-03T01:34:15;16.40;91.30
47022;DHT22;32779;52.264;6.154;2022-09-03T01:39:36;16.40;91.50
47022;DHT22;32779;52.264;6.154;2022-09-03T01:44:58;16.40;91.00
47022;DHT22;32779;52.264;6.154;2022-09-03T01:48:39;16.40;91.20
47022;DHT22;32779;52.264;6.154;2022-09-03T02:02:16;16.40;91.00
47022;DHT22;32779;52.264;6.154;2022-09-03T02:05:09;16.40;91.20
47022;DHT22;32779;52.264;6.154;2022-09-03T02:07:42;16.40;91.00
47022;DHT22;32779;52.264;6.154;2022-09-03T02:10:12;16.40;90.90
47022;DHT22;32779;52.264;6.154;2022-09-03T02:12:40;16.40;91.30
47022;DHT22;32779;52.264;6.154;2022-09-03T02:15:14;16.30;91.00
47022;DHT22;32779;52.264;6.154;2022-09-03T02:17:43;16.40;91.20
47022;DHT22;32779;52.264;6.154;2022-09-03T02:20:12;16.30;91.20
47022;DHT22;32779;52.264;6.154;2022-09-03T02:22:41;16.30;91.10
47022;DHT22;32779;52.264;6.154;2022-09-03T02:25:07;16.30;91.20
47022;DHT22;32779;52.264;6.154;2022-09-03T02:27:36;16.30;91.50
47022;DHT22;32779;52.264;6.154;2022-09-03T02:30:02;16.30;91.20
47022;DHT22;32779;52.264;6.154;2022-09-03T02:32:28;16.30;91.00
47022;DHT22;32779;52.264;6.154;2022-09-03T02:34:53;16.30;91.10
47022;DHT22;32779;52.264;6.154;2022-09-03T02:37:19;16.20;91.00
47022;DHT22;32779;52.264;6.154;2022-09-03T02:39:44;16.20;91.20
47022;DHT22;32779;52.264;6.154;2022-09-03T02:42:11;16.20;91.30
47022;DHT22;32779;52.264;6.154;2022-09-03T02:44:52;16.20;91.10
47022;DHT22;32779;52.264;6.154;2022-09-03T02:47:19;16.20;91.30
47022;DHT22;32779;52.264;6.154;2022-09-03T02:49:47;16.20;91.10
47022;DHT22;32779;52.264;6.154;2022-09-03T02:52:13;16.20;91.20
47022;DHT22;32779;52.264;6.154;2022-09-03T02:54:39;16.10;91.10
47022;DHT22;32779;52.264;6.154;2022-09-03T02:57:09;16.20;91.40
47022;DHT22;32779;52.264;6.154;2022-09-03T02:59:35;16.10;91.30
47022;DHT22;32779;52.264;6.154;2022-09-03T03:02:02;16.10;91.40
47022;DHT22;32779;52.264;6.154;2022-09-03T03:04:31;16.10;91.20
47022;DHT22;32779;52.264;6.154;2022-09-03T03:06:57;16.00;91.40
47022;DHT22;32779;52.264;6.154;2022-09-03T03:09:23;16.00;91.50
47022;DHT22;32779;52.264;6.154;2022-09-03T03:11:48;16.10;91.50
47022;DHT22;32779;52.264;6.154;2022-09-03T03:14:16;16.00;91.60
47022;DHT22;32779;52.264;6.154;2022-09-03T03:16:41;16.00;91.30
47022;DHT22;32779;52.264;6.154;2022-09-03T03:19:07;16.00;91.60
47022;DHT22;32779;52.264;6.154;2022-09-03T03:21:33;16.00;91.50
47022;DHT22;32779;52.264;6.154;2022-09-03T03:24:00;16.00;91.50
47022;DHT22;32779;52.264;6.154;2022-09-03T03:26:26;15.90;91.60
47022;DHT22;32779;52.264;6.154;2022-09-03T03:28:55;15.90;91.50
47022;DHT22;32779;52.264;6.154;2022-09-03T03:31:22;15.90;91.70
47022;DHT22;32779;52.264;6.154;2022-09-03T03:33:55;15.90;91.80
47022;DHT22;32779;52.264;6.154;2022-09-03T03:36:22;15.80;91.90
47022;DHT22;32779;52.264;6.154;2022-09-03T03:38:48;15.80;91.70
47022;DHT22;32779;52.264;6.154;2022-09-03T03:41:19;15.80;92.10
47022;DHT22;32779;52.264;6.154;2022-09-03T03:43:52;15.70;92.00
47022;DHT22;32779;52.264;6.154;2022-09-03T03:46:19;15.70;91.90
47022;DHT22;32779;52.264;6.154;2022-09-03T03:48:47;15.70;92.30
47022;DHT22;32779;52.264;6.154;2022-09-03T03:51:12;15.70;92.10
47022;DHT22;32779;52.264;6.154;2022-09-03T03:53:38;15.70;92.10
47022;DHT22;32779;52.264;6.154;2022-09-03T03:56:06;15.70;92.30
47022;DHT22;32779;52.264;6.154;2022-09-03T03:58:34;15.60;92.10
47022;DHT22;32779;52.264;6.154;2022-09-03T04:01:05;15.60;92.20
47022;DHT22;32779;52.264;6.154;2022-09-03T04:03:31;15.50;92.40
47022;DHT22;32779;52.264;6.154;2022-09-03T04:05:58;15.50;92.40
47022;DHT22;32779;52.264;6.154;2022-09-03T04:08:25;15.50;92.60
47022;DHT22;32779;52.264;6.154;2022-09-03T04:10:51;15.40;92.70
47022;DHT22;32779;52.264;6.154;2022-09-03T04:13:17;15.40;92.40
47022;DHT22;32779;52.264;6.154;2022-09-03T04:15:43;15.30;92.80
47022;DHT22;32779;52.264;6.154;2022-09-03T04:18:08;15.30;93.10
47022;DHT22;32779;52.264;6.154;2022-09-03T04:20:37;15.30;93.00
47022;DHT22;32779;52.264;6.154;2022-09-03T04:23:03;15.20;93.00
47022;DHT22;32779;52.264;6.154;2022-09-03T04:25:29;15.20;93.30
47022;DHT22;32779;52.264;6.154;2022-09-03T04:27:55;15.10;93.00
47022;DHT22;32779;52.264;6.154;2022-09-03T04:30:21;15.00;93.40
47022;DHT22;32779;52.264;6.154;2022-09-03T04:32:49;15.00;93.30
47022;DHT22;32779;52.264;6.154;2022-09-03T04:35:19;15.00;93.60
47022;DHT22;32779;52.264;6.154;2022-09-03T04:37:46;14.90;93.50
47022;DHT22;32779;52.264;6.154;2022-09-03T04:40:12;14.90;93.60
47022;DHT22;32779;52.264;6.154;2022-09-03T04:42:38;14.90;93.70
47022;DHT22;32779;52.264;6.154;2022-09-03T04:45:04;14.80;93.60
47022;DHT22;32779;52.264;6.154;2022-09-03T04:47:29;14.80;94.00
47022;DHT22;32779;52.264;6.154;2022-09-03T04:49:55;14.70;93.80
47022;DHT22;32779;52.264;6.154;2022-09-03T04:52:21;14.70;94.00
47022;DHT22;32779;52.264;6.154;2022-09-03T04:54:46;14.70;94.00
47022;DHT22;32779;52.264;6.154;2022-09-03T04:57:12;14.60;94.40
47022;DHT22;32779;52.264;6.154;2022-09-03T04:59:38;14.60;94.20
47022;DHT22;32779;52.264;6.154;2022-09-03T05:02:05;14.60;94.60
47022;DHT22;32779;52.264;6.154;2022-09-03T05:04:31;14.60;94.60
47022;DHT22;32779;52.264;6.154;2022-09-03T05:06:56;14.60;94.30
47022;DHT22;32779;52.264;6.154;2022-09-03T05:09:22;14.60;94.50
47022;DHT22;32779;52.264;6.154;2022-09-03T05:11:47;14.60;94.30
47022;DHT22;32779;52.264;6.154;2022-09-03T05:14:13;14.60;94.60
47022;DHT22;32779;52.264;6.154;2022-09-03T05:16:38;14.50;94.40
47022;DHT22;32779;52.264;6.154;2022-09-03T05:19:04;14.60;95.00
47022;DHT22;32779;52.264;6.154;2022-09-03T05:21:31;14.50;94.40
47022;DHT22;32779;52.264;6.154;2022-09-03T05:23:56;14.50;94.40
47022;DHT22;32779;52.264;6.154;2022-09-03T05:26:26;14.50;94.60
47022;DHT22;32779;52.264;6.154;2022-09-03T05:28:56;14.50;94.50
47022;DHT22;32779;52.264;6.154;2022-09-03T05:31:24;14.50;94.90
47022;DHT22;32779;52.264;6.154;2022-09-03T05:33:53;14.60;94.70
47022;DHT22;32779;52.264;6.154;2022-09-03T05:36:21;14.60;94.50
47022;DHT22;32779;52.264;6.154;2022-09-03T05:38:47;14.60;94.60
47022;DHT22;32779;52.264;6.154;2022-09-03T05:41:15;14.60;94.50
47022;DHT22;32779;52.264;6.154;2022-09-03T05:43:42;14.70;94.30
47022;DHT22;32779;52.264;6.154;2022-09-03T05:46:12;14.70;94.80
47022;DHT22;32779;52.264;6.154;2022-09-03T05:48:39;14.70;94.90
47022;DHT22;32779;52.264;6.154;2022-09-03T05:51:07;14.70;94.70
47022;DHT22;32779;52.264;6.154;2022-09-03T05:53:35;14.80;94.60
47022;DHT22;32779;52.264;6.154;2022-09-03T05:56:05;14.80;94.60
47022;DHT22;32779;52.264;6.154;2022-09-03T05:58:32;14.90;94.60
47022;DHT22;32779;52.264;6.154;2022-09-03T06:00:59;15.00;94.60
47022;DHT22;32779;52.264;6.154;2022-09-03T06:03:25;15.10;94.10
47022;DHT22;32779;52.264;6.154;2022-09-03T06:05:51;15.30;94.20
47022;DHT22;32779;52.264;6.154;2022-09-03T06:08:17;15.40;93.80
47022;DHT22;32779;52.264;6.154;2022-09-03T06:10:43;15.50;93.80
47022;DHT22;32779;52.264;6.154;2022-09-03T06:13:08;15.70;94.00
47022;DHT22;32779;52.264;6.154;2022-09-03T06:15:34;15.90;93.30
47022;DHT22;32779;52.264;6.154;2022-09-03T06:18:00;16.00;93.40
47022;DHT22;32779;52.264;6.154;2022-09-03T06:20:25;16.30;93.10
47022;DHT22;32779;52.264;6.154;2022-09-03T06:22:53;16.50;92.80
47022;DHT22;32779;52.264;6.154;2022-09-03T06:25:19;16.60;92.20
47022;DHT22;32779;52.264;6.154;2022-09-03T06:27:45;16.80;92.10
47022;DHT22;32779;52.264;6.154;2022-09-03T06:30:12;17.00;92.00
47022;DHT22;32779;52.264;6.154;2022-09-03T06:32:44;17.10;91.80
47022;DHT22;32779;52.264;6.154;2022-09-03T06:35:10;17.30;91.80
47022;DHT22;32779;52.264;6.154;2022-09-03T06:37:39;17.40;91.30
47022;DHT22;32779;52.264;6.154;2022-09-03T06:40:05;17.50;90.80
47022;DHT22;32779;52.264;6.154;2022-09-03T06:42:38;17.60;90.80
47022;DHT22;32779;52.264;6.154;2022-09-03T06:45:04;17.80;90.80
47022;DHT22;32779;52.264;6.154;2022-09-03T06:47:31;17.90;90.60
47022;DHT22;32779;52.264;6.154;2022-09-03T06:49:58;18.00;90.20
47022;DHT22;32779;52.264;6.154;2022-09-03T06:52:25;18.10;90.10
47022;DHT22;32779;52.264;6.154;2022-09-03T06:54:50;18.20;90.10
47022;DHT22;32779;52.264;6.154;2022-09-03T06:57:16;18.40;89.60
47022;DHT22;32779;52.264;6.154;2022-09-03T06:59:41;18.40;89.70
47022;DHT22;32779;52.264;6.154;2022-09-03T07:02:08;18.50;89.50
47022;DHT22;32779;52.264;6.154;2022-09-03T07:04:34;18.60;89.20
47022;DHT22;32779;52.264;6.154;2022-09-03T07:07:00;18.70;89.30
47022;DHT22;32779;52.264;6.154;2022-09-03T07:09:25;18.90;89.40
47022;DHT22;32779;52.264;6.154;2022-09-03T07:11:51;19.00;89.70
47022;DHT22;32779;52.264;6.154;2022-09-03T07:14:17;19.00;88.80
47022;DHT22;32779;52.264;6.154;2022-09-03T07:16:43;19.10;88.50
47022;DHT22;32779;52.264;6.154;2022-09-03T07:19:10;19.10;87.90
47022;DHT22;32779;52.264;6.154;2022-09-03T07:21:38;19.10;88.50
47022;DHT22;32779;52.264;6.154;2022-09-03T07:24:06;19.20;88.80
47022;DHT22;32779;52.264;6.154;2022-09-03T07:26:37;19.40;87.80
47022;DHT22;32779;52.264;6.154;2022-09-03T07:29:05;19.50;87.80
47022;DHT22;32779;52.264;6.154;2022-09-03T07:31:38;19.60;87.10
47022;DHT22;32779;52.264;6.154;2022-09-03T07:34:06;19.60;86.50
47022;DHT22;32779;52.264;6.154;2022-09-03T07:36:37;19.50;86.80
47022;DHT22;32779;52.264;6.154;2022-09-03T07:39:04;19.50;87.20
47022;DHT22;32779;52.264;6.154;2022-09-03T07:41:30;19.50;88.60
47022;DHT22;32779;52.264;6.154;2022-09-03T07:43:58;19.40;88.40
47022;DHT22;32779;52.264;6.154;2022-09-03T07:46:25;19.40;88.50
47022;DHT22;32779;52.264;6.154;2022-09-03T07:48:54;19.50;87.30
47022;DHT22;32779;52.264;6.154;2022-09-03T07:51:22;19.50;88.10
47022;DHT22;32779;52.264;6.154;2022-09-03T07:53:51;19.60;87.30
47022;DHT22;32779;52.264;6.154;2022-09-03T07:56:17;19.70;88.60
47022;DHT22;32779;52.264;6.154;2022-09-03T07:58:43;19.70;86.70
47022;DHT22;32779;52.264;6.154;2022-09-03T08:01:11;19.90;87.60
47022;DHT22;32779;52.264;6.154;2022-09-03T08:03:41;20.10;86.60
47022;DHT22;32779;52.264;6.154;2022-09-03T08:06:07;20.30;85.20
47022;DHT22;32779;52.264;6.154;2022-09-03T08:08:34;20.50;86.40
47022;DHT22;32779;52.264;6.154;2022-09-03T08:11:11;20.80;84.80
47022;DHT22;32779;52.264;6.154;2022-09-03T08:13:48;21.00;84.80
47022;DHT22;32779;52.264;6.154;2022-09-03T08:16:17;21.10;83.30
47022;DHT22;32779;52.264;6.154;2022-09-03T08:18:43;21.20;83.30
47022;DHT22;32779;52.264;6.154;2022-09-03T08:21:12;21.30;84.20
47022;DHT22;32779;52.264;6.154;2022-09-03T08:23:40;21.40;83.30
47022;DHT22;32779;52.264;6.154;2022-09-03T08:26:07;21.60;84.30
47022;DHT22;32779;52.264;6.154;2022-09-03T08:28:34;21.70;83.00
47022;DHT22;32779;52.264;6.154;2022-09-03T08:31:08;21.60;82.90
47022;DHT22;32779;52.264;6.154;2022-09-03T08:33:39;21.70;83.00
47022;DHT22;32779;52.264;6.154;2022-09-03T08:36:09;21.70;82.30
47022;DHT22;32779;52.264;6.154;2022-09-03T08:38:37;21.80;82.50
47022;DHT22;32779;52.264;6.154;2022-09-03T08:41:05;21.80;82.90
47022;DHT22;32779;52.264;6.154;2022-09-03T08:43:31;21.80;82.40
47022;DHT22;32779;52.264;6.154;2022-09-03T08:46:01;21.80;84.30
47022;DHT22;32779;52.264;6.154;2022-09-03T08:48:27;21.90;82.60
47022;DHT22;32779;52.264;6.154;2022-09-03T08:50:55;22.00;81.80
47022;DHT22;32779;52.264;6.154;2022-09-03T08:53:43;22.10;81.70
47022;DHT22;32779;52.264;6.154;2022-09-03T08:56:23;22.10;82.40
47022;DHT22;32779;52.264;6.154;2022-09-03T08:58:49;22.10;82.60
47022;DHT22;32779;52.264;6.154;2022-09-03T09:04:03;22.30;80.90
47022;DHT22;32779;52.264;6.154;2022-09-03T09:06:49;22.40;81.10
47022;DHT22;32779;52.264;6.154;2022-09-03T09:12:28;22.50;81.60
47022;DHT22;32779;52.264;6.154;2022-09-03T09:23:06;22.40;82.90
47022;DHT22;32779;52.264;6.154;2022-09-03T09:25:33;22.40;82.10
47022;DHT22;32779;52.264;6.154;2022-09-03T09:28:36;22.50;81.40
47022;DHT22;32779;52.264;6.154;2022-09-03T09:31:05;22.50;81.70
47022;DHT22;32779;52.264;6.154;2022-09-03T09:33:32;22.50;80.30
47022;DHT22;32779;52.264;6.154;2022-09-03T09:36:05;22.60;80.50
47022;DHT22;32779;52.264;6.154;2022-09-03T09:38:34;22.60;81.20
47022;DHT22;32779;52.264;6.154;2022-09-03T09:41:16;22.60;80.80
47022;DHT22;32779;52.264;6.154;2022-09-03T09:43:44;22.70;82.10
47022;DHT22;32779;52.264;6.154;2022-09-03T09:46:20;22.80;82.30
47022;DHT22;32779;52.264;6.154;2022-09-03T09:48:50;22.90;81.20
47022;DHT22;32779;52.264;6.154;2022-09-03T09:51:30;22.90;80.30
47022;DHT22;32779;52.264;6.154;2022-09-03T09:54:23;22.90;80.40
47022;DHT22;32779;52.264;6.154;2022-09-03T09:57:03;23.00;80.40
47022;DHT22;32779;52.264;6.154;2022-09-03T09:59:30;23.10;79.80
47022;DHT22;32779;52.264;6.154;2022-09-03T10:02:10;23.10;79.40
47022;DHT22;32779;52.264;6.154;2022-09-03T10:04:37;23.20;79.50
47022;DHT22;32779;52.264;6.154;2022-09-03T10:07:22;23.20;79.90
47022;DHT22;32779;52.264;6.154;2022-09-03T10:10:02;23.40;79.40
47022;DHT22;32779;52.264;6.154;2022-09-03T10:12:41;23.40;78.20
47022;DHT22;32779;52.264;6.154;2022-09-03T10:20:51;23.40;77.90
47022;DHT22;32779;52.264;6.154;2022-09-03T10:23:25;23.50;78.70
47022;DHT22;32779;52.264;6.154;2022-09-03T10:26:01;23.50;78.10
47022;DHT22;32779;52.264;6.154;2022-09-03T10:28:36;23.60;78.20
47022;DHT22;32779;52.264;6.154;2022-09-03T10:33:47;23.80;78.50
47022;DHT22;32779;52.264;6.154;2022-09-03T10:36:24;23.90;77.30
47022;DHT22;32779;52.264;6.154;2022-09-03T10:39:10;23.90;76.50
47022;DHT22;32779;52.264;6.154;2022-09-03T10:50:25;24.20;75.30
47022;DHT22;32779;52.264;6.154;2022-09-03T10:56:02;24.40;75.70
47022;DHT22;32779;52.264;6.154;2022-09-03T11:12:30;24.60;74.90
47022;DHT22;32779;52.264;6.154;2022-09-03T11:17:38;24.70;74.40
47022;DHT22;32779;52.264;6.154;2022-09-03T11:20:22;24.80;73.70
47022;DHT22;32779;52.264;6.154;2022-09-03T11:22:51;24.80;74.60
47022;DHT22;32779;52.264;6.154;2022-09-03T11:25:20;24.80;73.80
47022;DHT22;32779;52.264;6.154;2022-09-03T11:27:55;24.90;74.50
47022;DHT22;32779;52.264;6.154;2022-09-03T11:31:02;25.00;73.10
47022;DHT22;32779;52.264;6.154;2022-09-03T11:33:32;25.00;73.20
47022;DHT22;32779;52.264;6.154;2022-09-03T11:35:59;25.10;73.90
47022;DHT22;32779;52.264;6.154;2022-09-03T11:38:27;25.10;73.30
47022;DHT22;32779;52.264;6.154;2022-09-03T11:45:59;25.10;72.60
47022;DHT22;32779;52.264;6.154;2022-09-03T11:53:59;25.10;72.90
47022;DHT22;32779;52.264;6.154;2022-09-03T11:56:25;25.20;73.40
47022;DHT22;32779;52.264;6.154;2022-09-03T12:01:31;25.30;73.90
47022;DHT22;32779;52.264;6.154;2022-09-03T12:04:00;25.30;73.70
47022;DHT22;32779;52.264;6.154;2022-09-03T12:12:44;25.50;74.40
47022;DHT22;32779;52.264;6.154;2022-09-03T12:18:18;25.50;72.60
47022;DHT22;32779;52.264;6.154;2022-09-03T12:23:32;25.50;72.80
47022;DHT22;32779;52.264;6.154;2022-09-03T12:26:07;25.50;72.70
47022;DHT22;32779;52.264;6.154;2022-09-03T12:28:37;25.50;72.80
47022;DHT22;32779;52.264;6.154;2022-09-03T12:31:08;25.50;72.70
47022;DHT22;32779;52.264;6.154;2022-09-03T12:33:41;25.50;73.50
47022;DHT22;32779;52.264;6.154;2022-09-03T12:36:08;25.50;73.70
47022;DHT22;32779;52.264;6.154;2022-09-03T12:38:34;25.60;72.80
47022;DHT22;32779;52.264;6.154;2022-09-03T12:41:00;25.60;72.80
47022;DHT22;32779;52.264;6.154;2022-09-03T12:43:27;25.70;72.90
47022;DHT22;32779;52.264;6.154;2022-09-03T12:45:53;25.70;73.90
47022;DHT22;32779;52.264;6.154;2022-09-03T12:48:20;25.80;72.80
47022;DHT22;32779;52.264;6.154;2022-09-03T12:50:47;25.80;72.10
47022;DHT22;32779;52.264;6.154;2022-09-03T12:53:21;25.70;72.30
47022;DHT22;32779;52.264;6.154;2022-09-03T12:55:51;25.70;73.00
47022;DHT22;32779;52.264;6.154;2022-09-03T12:58:24;25.70;74.40
47022;DHT22;32779;52.264;6.154;2022-09-03T13:01:07;25.80;72.60
47022;DHT22;32779;52.264;6.154;2022-09-03T13:06:19;25.80;73.40
47022;DHT22;32779;52.264;6.154;2022-09-03T13:08:55;25.90;73.50
47022;DHT22;32779;52.264;6.154;2022-09-03T13:11:22;25.90;73.50
47022;DHT22;32779;52.264;6.154;2022-09-03T13:14:10;25.90;72.70
47022;DHT22;32779;52.264;6.154;2022-09-03T13:19:25;25.80;73.50
47022;DHT22;32779;52.264;6.154;2022-09-03T13:25:02;26.00;73.50
47022;DHT22;32779;52.264;6.154;2022-09-03T13:27:42;26.00;73.30
47022;DHT22;32779;52.264;6.154;2022-09-03T13:30:16;26.00;73.90
47022;DHT22;32779;52.264;6.154;2022-09-03T13:32:55;26.10;73.10
47022;DHT22;32779;52.264;6.154;2022-09-03T13:35:58;26.00;72.90
47022;DHT22;32779;52.264;6.154;2022-09-03T13:38:38;26.10;72.60
47022;DHT22;32779;52.264;6.154;2022-09-03T13:46:55;26.00;74.00
47022;DHT22;32779;52.264;6.154;2022-09-03T13:52:54;26.00;73.30
47022;DHT22;32779;52.264;6.154;2022-09-03T13:55:05;26.00;74.70
47022;DHT22;32779;52.264;6.154;2022-09-03T13:57:37;26.00;73.90
47022;DHT22;32779;52.264;6.154;2022-09-03T14:00:12;26.00;73.40
47022;DHT22;32779;52.264;6.154;2022-09-03T14:08:07;26.20;74.20
47022;DHT22;32779;52.264;6.154;2022-09-03T14:19:20;26.10;74.00
47022;DHT22;32779;52.264;6.154;2022-09-03T14:21:57;26.00;73.60
47022;DHT22;32779;52.264;6.154;2022-09-03T14:24:44;25.90;73.40
47022;DHT22;32779;52.264;6.154;2022-09-03T14:27:11;25.90;74.10
47022;DHT22;32779;52.264;6.154;2022-09-03T14:29:37;25.80;74.00
47022;DHT22;32779;52.264;6.154;2022-09-03T14:32:26;25.90;74.50
47022;DHT22;32779;52.264;6.154;2022-09-03T14:35:11;26.00;73.80
47022;DHT22;32779;52.264;6.154;2022-09-03T14:40:12;26.00;73.90
47022;DHT22;32779;52.264;6.154;2022-09-03T14:45:32;26.30;74.80
47022;DHT22;32779;52.264;6.154;2022-09-03T14:48:06;26.40;73.50
47022;DHT22;32779;52.264;6.154;2022-09-03T14:51:00;26.50;74.30
47022;DHT22;32779;52.264;6.154;2022-09-03T15:05:35;26.50;74.50
47022;DHT22;32779;52.264;6.154;2022-09-03T15:10:54;26.50;72.70
47022;DHT22;32779;52.264;6.154;2022-09-03T15:13:29;26.40;73.90
47022;DHT22;32779;52.264;6.154;2022-09-03T15:21:53;26.30;74.60
47022;DHT22;32779;52.264;6.154;2022-09-03T15:30:05;26.30;74.50
47022;DHT22;32779;52.264;6.154;2022-09-03T15:32:56;26.20;74.60
47022;DHT22;32779;52.264;6.154;2022-09-03T15:35:38;26.10;74.30
47022;DHT22;32779;52.264;6.154;2022-09-03T15:38:36;26.10;74.90
47022;DHT22;32779;52.264;6.154;2022-09-03T15:41:09;26.20;74.60
47022;DHT22;32779;52.264;6.154;2022-09-03T15:43:42;26.20;74.40
47022;DHT22;32779;52.264;6.154;2022-09-03T15:49:09;26.30;74.30
47022;DHT22;32779;52.264;6.154;2022-09-03T15:54:49;26.30;74.30
47022;DHT22;32779;52.264;6.154;2022-09-03T15:57:51;26.30;73.80
47022;DHT22;32779;52.264;6.154;2022-09-03T16:00:12;26.30;74.50
47022;DHT22;32779;52.264;6.154;2022-09-03T16:03:00;26.20;74.70
47022;DHT22;32779;52.264;6.154;2022-09-03T16:05:43;26.10;74.10
47022;DHT22;32779;52.264;6.154;2022-09-03T16:08:17;26.00;75.00
47022;DHT22;32779;52.264;6.154;2022-09-03T16:16:37;25.80;74.50
47022;DHT22;32779;52.264;6.154;2022-09-03T16:21:59;25.70;74.70
47022;DHT22;32779;52.264;6.154;2022-09-03T16:27:21;25.50;76.40
47022;DHT22;32779;52.264;6.154;2022-09-03T16:30:11;25.40;75.90
47022;DHT22;32779;52.264;6.154;2022-09-03T16:33:08;25.40;76.20
47022;DHT22;32779;52.264;6.154;2022-09-03T16:38:46;25.30;76.10
47022;DHT22;32779;52.264;6.154;2022-09-03T16:44:45;25.30;76.90
47022;DHT22;32779;52.264;6.154;2022-09-03T16:52:59;25.10;76.70
47022;DHT22;32779;52.264;6.154;2022-09-03T17:06:57;25.00;76.50
47022;DHT22;32779;52.264;6.154;2022-09-03T17:12:01;25.00;76.90
47022;DHT22;32779;52.264;6.154;2022-09-03T17:17:40;25.00;77.00
47022;DHT22;32779;52.264;6.154;2022-09-03T17:26:08;24.90;77.30
47022;DHT22;32779;52.264;6.154;2022-09-03T17:29:12;24.80;77.70
47022;DHT22;32779;52.264;6.154;2022-09-03T17:31:54;24.80;78.60
47022;DHT22;32779;52.264;6.154;2022-09-03T17:34:41;24.80;78.60
47022;DHT22;32779;52.264;6.154;2022-09-03T17:38:20;24.80;78.30
47022;DHT22;32779;52.264;6.154;2022-09-03T17:40:56;24.80;78.80
47022;DHT22;32779;52.264;6.154;2022-09-03T17:43:45;24.70;78.30
47022;DHT22;32779;52.264;6.154;2022-09-03T17:46:19;24.60;78.80
47022;DHT22;32779;52.264;6.154;2022-09-03T17:48:53;24.50;79.90
47022;DHT22;32779;52.264;6.154;2022-09-03T17:54:34;24.30;80.60
47022;DHT22;32779;52.264;6.154;2022-09-03T17:59:42;24.20;80.60
47022;DHT22;32779;52.264;6.154;2022-09-03T18:07:41;23.90;81.70
47022;DHT22;32779;52.264;6.154;2022-09-03T18:13:11;23.80;81.40
47022;DHT22;32779;52.264;6.154;2022-09-03T18:15:49;23.70;81.60
47022;DHT22;32779;52.264;6.154;2022-09-03T18:18:28;23.60;81.70
47022;DHT22;32779;52.264;6.154;2022-09-03T18:20:57;23.50;82.10
47022;DHT22;32779;52.264;6.154;2022-09-03T18:26:49;23.30;83.00
47022;DHT22;32779;52.264;6.154;2022-09-03T18:29:43;23.10;83.40
47022;DHT22;32779;52.264;6.154;2022-09-03T18:32:29;23.00;84.00
47022;DHT22;32779;52.264;6.154;2022-09-03T18:35:13;22.80;84.40
47022;DHT22;32779;52.264;6.154;2022-09-03T18:37:58;22.80;85.00
47022;DHT22;32779;52.264;6.154;2022-09-03T18:40:51;22.70;85.30
47022;DHT22;32779;52.264;6.154;2022-09-03T18:47:02;22.50;86.20
47022;DHT22;32779;52.264;6.154;2022-09-03T18:50:00;22.30;86.90
47022;DHT22;32779;52.264;6.154;2022-09-03T18:52:58;22.20;87.40
47022;DHT22;32779;52.264;6.154;2022-09-03T18:55:45;22.10;88.00
47022;DHT22;32779;52.264;6.154;2022-09-03T18:58:51;22.00;88.40
47022;DHT22;32779;52.264;6.154;2022-09-03T19:01:38;21.80;89.20
47022;DHT22;32779;52.264;6.154;2022-09-03T19:04:40;21.70;89.60
47022;DHT22;32779;52.264;6.154;2022-09-03T19:10:28;21.50;90.20
47022;DHT22;32779;52.264;6.154;2022-09-03T19:19:31;21.30;90.80
47022;DHT22;32779;52.264;6.154;2022-09-03T19:27:13;21.20;90.90
47022;DHT22;32779;52.264;6.154;2022-09-03T19:30:07;21.20;91.10
47022;DHT22;32779;52.264;6.154;2022-09-03T19:42:14;21.10;90.70
47022;DHT22;32779;52.264;6.154;2022-09-03T19:51:10;21.00;90.70
47022;DHT22;32779;52.264;6.154;2022-09-03T19:53:58;21.00;90.60
47022;DHT22;32779;52.264;6.154;2022-09-03T19:59:20;21.10;90.40
47022;DHT22;32779;52.264;6.154;2022-09-03T20:02:05;21.00;90.50
47022;DHT22;32779;52.264;6.154;2022-09-03T20:04:58;21.10;90.20
47022;DHT22;32779;52.264;6.154;2022-09-03T20:07:44;21.00;90.20
47022;DHT22;32779;52.264;6.154;2022-09-03T20:10:31;21.10;90.20
47022;DHT22;32779;52.264;6.154;2022-09-03T20:13:07;21.10;90.20
47022;DHT22;32779;52.264;6.154;2022-09-03T20:18:44;21.10;90.30
47022;DHT22;32779;52.264;6.154;2022-09-03T20:31:52;21.10;90.60
47022;DHT22;32779;52.264;6.154;2022-09-03T20:37:43;21.00;90.90
47022;DHT22;32779;52.264;6.154;2022-09-03T20:43:08;21.00;91.00
47022;DHT22;32779;52.264;6.154;2022-09-03T20:45:48;21.00;91.10
47022;DHT22;32779;52.264;6.154;2022-09-03T20:48:30;21.00;90.90
47022;DHT22;32779;52.264;6.154;2022-09-03T20:51:08;21.00;91.20
47022;DHT22;32779;52.264;6.154;2022-09-03T20:53:49;21.00;90.90
47022;DHT22;32779;52.264;6.154;2022-09-03T20:59:29;21.00;91.10
47022;DHT22;32779;52.264;6.154;2022-09-03T21:02:24;21.00;91.10
47022;DHT22;32779;52.264;6.154;2022-09-03T21:05:22;21.00;90.90
47022;DHT22;32779;52.264;6.154;2022-09-03T21:08:04;21.00;91.10
47022;DHT22;32779;52.264;6.154;2022-09-03T21:16:22;21.00;90.90
47022;DHT22;32779;52.264;6.154;2022-09-03T21:18:48;21.00;91.10
47022;DHT22;32779;52.264;6.154;2022-09-03T21:24:07;21.00;91.10